GEC8004 SBKP-GOOY
Flight info
| Callsign | GEC8004 |
|---|---|
| Flight time | N/A |
| Altitude | 41000 |
| Route | DEXIB DCT CNF DCT OPTEB UZ72 LIXAM DCT RATEP DCT FEMUR UN873 INTOL DCT 02N030W DCT ERETU DCT RAKIM DCT 11N021W DCT PIVSA |
| Aircraft | MD11/H-SDE1E2E3FGHIJ2J3J4J5M1RWXY/LB1D1 |
Departure
| Time | 2026-05-01 11:40 |
|---|---|
| Airport | Viracopos International Airport (SBKP) |
Arrival
| Time | N/A |
|---|---|
| Airport | Léopold Sédar Senghor International Airport (GOOY) |
| Time | Latitude | Longitude | Altitude | Speed | Heading |
|---|---|---|---|---|---|
| 2026-05-01 11:20 | -23.00593 | -47.14307 | 2170 ft | 0 kts | 219° |
| 2026-05-01 11:32 | -23.00579 | -47.14295 | 2160 ft | 4 kts | 213° |
| 2026-05-01 11:32 | -23.00557 | -47.14280 | 2160 ft | 4 kts | 213° |
| 2026-05-01 11:33 | -23.00537 | -47.14263 | 2160 ft | 4 kts | 239° |
| 2026-05-01 11:33 | -23.00528 | -47.14243 | 2160 ft | 4 kts | 269° |
| 2026-05-01 11:33 | -23.00533 | -47.14220 | 2160 ft | 4 kts | 304° |
| 2026-05-01 11:33 | -23.00546 | -47.14200 | 2160 ft | 1 kts | 308° |
| 2026-05-01 11:34 | -23.00549 | -47.14197 | 2160 ft | 0 kts | 308° |
| 2026-05-01 11:35 | -23.00534 | -47.14217 | 2160 ft | 6 kts | 308° |
| 2026-05-01 11:36 | -23.00503 | -47.14259 | 2160 ft | 9 kts | 311° |
| 2026-05-01 11:36 | -23.00457 | -47.14320 | 2162 ft | 12 kts | 307° |
| 2026-05-01 11:36 | -23.00399 | -47.14403 | 2163 ft | 14 kts | 307° |
| 2026-05-01 11:36 | -23.00342 | -47.14484 | 2162 ft | 12 kts | 307° |
| 2026-05-01 11:37 | -23.00297 | -47.14549 | 2162 ft | 10 kts | 307° |
| 2026-05-01 11:37 | -23.00260 | -47.14600 | 2161 ft | 8 kts | 307° |
| 2026-05-01 11:37 | -23.00232 | -47.14640 | 2160 ft | 6 kts | 307° |
| 2026-05-01 11:37 | -23.00209 | -47.14673 | 2161 ft | 6 kts | 307° |
| 2026-05-01 11:38 | -23.00170 | -47.14714 | 2161 ft | 9 kts | 322° |
| 2026-05-01 11:38 | -23.00103 | -47.14733 | 2163 ft | 11 kts | 6° |
| 2026-05-01 11:38 | -23.00026 | -47.14698 | 2162 ft | 13 kts | 34° |
| 2026-05-01 11:38 | -22.99972 | -47.14633 | 2163 ft | 11 kts | 59° |
| 2026-05-01 11:39 | -22.99957 | -47.14562 | 2163 ft | 9 kts | 99° |
| 2026-05-01 11:39 | -23.00049 | -47.14413 | 2159 ft | 59 kts | 127° |
| 2026-05-01 11:39 | -23.00490 | -47.13799 | 2163 ft | 145 kts | 127° |
| 2026-05-01 11:39 | -23.01209 | -47.12789 | 2537 ft | 181 kts | 126° |
| 2026-05-01 11:40 | -23.01953 | -47.11622 | 3435 ft | 191 kts | 112° |
| 2026-05-01 11:40 | -23.02096 | -47.10225 | 4299 ft | 192 kts | 71° |
| 2026-05-01 11:40 | -23.01324 | -47.09032 | 4844 ft | 207 kts | 33° |
| 2026-05-01 11:40 | -22.99939 | -47.08398 | 5444 ft | 218 kts | 12° |
| 2026-05-01 11:41 | -22.98356 | -47.08124 | 5920 ft | 249 kts | 7° |
| 2026-05-01 11:41 | -22.96564 | -47.07891 | 6538 ft | 264 kts | 6° |
| 2026-05-01 11:41 | -22.94718 | -47.07654 | 7364 ft | 269 kts | 6° |
| 2026-05-01 11:41 | -22.92834 | -47.07413 | 8192 ft | 274 kts | 6° |
| 2026-05-01 11:42 | -22.90911 | -47.07166 | 8960 ft | 282 kts | 5° |
| 2026-05-01 11:42 | -22.88939 | -47.06885 | 9715 ft | 290 kts | 8° |
| 2026-05-01 11:42 | -22.86923 | -47.06440 | 10202 ft | 308 kts | 13° |
| 2026-05-01 11:42 | -22.84767 | -47.05758 | 10332 ft | 337 kts | 18° |
| 2026-05-01 11:43 | -22.82472 | -47.04844 | 10488 ft | 365 kts | 21° |
| 2026-05-01 11:43 | -22.80117 | -47.03758 | 11219 ft | 370 kts | 23° |
| 2026-05-01 11:43 | -22.77762 | -47.02586 | 12040 ft | 374 kts | 24° |
| 2026-05-01 11:44 | -22.73044 | -47.00072 | 13560 ft | 383 kts | 30° |
| 2026-05-01 11:44 | -22.70845 | -46.98433 | 14256 ft | 387 kts | 37° |
| 2026-05-01 11:44 | -22.68771 | -46.96548 | 14873 ft | 392 kts | 40° |
| 2026-05-01 11:44 | -22.66735 | -46.94561 | 15481 ft | 397 kts | 41° |
| 2026-05-01 11:45 | -22.64687 | -46.92529 | 16079 ft | 402 kts | 41° |
| 2026-05-01 11:45 | -22.62610 | -46.90476 | 16664 ft | 407 kts | 41° |
| 2026-05-01 11:45 | -22.60500 | -46.88408 | 17227 ft | 412 kts | 40° |
| 2026-05-01 11:45 | -22.58361 | -46.86328 | 17797 ft | 416 kts | 40° |
| 2026-05-01 11:46 | -22.56192 | -46.84229 | 18351 ft | 420 kts | 40° |
| 2026-05-01 11:46 | -22.53998 | -46.82112 | 18865 ft | 424 kts | 40° |
| 2026-05-01 11:46 | -22.51814 | -46.80009 | 19341 ft | 428 kts | 40° |
| 2026-05-01 11:46 | -22.49582 | -46.77860 | 19822 ft | 431 kts | 40° |
| 2026-05-01 11:47 | -22.47335 | -46.75700 | 20294 ft | 434 kts | 40° |
| 2026-05-01 11:47 | -22.45069 | -46.73521 | 20758 ft | 437 kts | 40° |
| 2026-05-01 11:47 | -22.42790 | -46.71331 | 21237 ft | 440 kts | 40° |
| 2026-05-01 11:47 | -22.40492 | -46.69124 | 21724 ft | 444 kts | 40° |
| 2026-05-01 11:48 | -22.38178 | -46.66902 | 22204 ft | 447 kts | 40° |
| 2026-05-01 11:48 | -22.35842 | -46.64660 | 22693 ft | 450 kts | 40° |
| 2026-05-01 11:48 | -22.33489 | -46.62403 | 23213 ft | 454 kts | 40° |
| 2026-05-01 11:48 | -22.31118 | -46.60129 | 23699 ft | 457 kts | 40° |
| 2026-05-01 11:49 | -22.28731 | -46.57842 | 24146 ft | 460 kts | 40° |
| 2026-05-01 11:49 | -22.26328 | -46.55539 | 24609 ft | 463 kts | 40° |
| 2026-05-01 11:49 | -22.23912 | -46.53227 | 25060 ft | 466 kts | 39° |
| 2026-05-01 11:49 | -22.21478 | -46.50897 | 25518 ft | 469 kts | 39° |
| 2026-05-01 11:50 | -22.19023 | -46.48549 | 25967 ft | 473 kts | 39° |
| 2026-05-01 11:50 | -22.16555 | -46.46189 | 26425 ft | 476 kts | 39° |
| 2026-05-01 11:50 | -22.14067 | -46.43812 | 26869 ft | 479 kts | 39° |
| 2026-05-01 11:50 | -22.11565 | -46.41422 | 27295 ft | 482 kts | 39° |
| 2026-05-01 11:51 | -22.09043 | -46.39019 | 27746 ft | 485 kts | 39° |
| 2026-05-01 11:51 | -22.06505 | -46.36605 | 28168 ft | 489 kts | 39° |
| 2026-05-01 11:51 | -22.03943 | -46.34170 | 28610 ft | 491 kts | 39° |
| 2026-05-01 11:51 | -22.01373 | -46.31725 | 29034 ft | 495 kts | 39° |
| 2026-05-01 11:52 | -21.98790 | -46.29266 | 29437 ft | 498 kts | 39° |
| 2026-05-01 11:52 | -21.96188 | -46.26789 | 29873 ft | 501 kts | 39° |
| 2026-05-01 11:52 | -21.93569 | -46.24297 | 30258 ft | 504 kts | 39° |
| 2026-05-01 11:52 | -21.90936 | -46.21792 | 30568 ft | 507 kts | 39° |
| 2026-05-01 11:53 | -21.88285 | -46.19272 | 30865 ft | 509 kts | 39° |
| 2026-05-01 11:53 | -21.85627 | -46.16745 | 31178 ft | 510 kts | 39° |
| 2026-05-01 11:53 | -21.82962 | -46.14213 | 31538 ft | 510 kts | 39° |
| 2026-05-01 11:53 | -21.80301 | -46.11686 | 31925 ft | 510 kts | 39° |
| 2026-05-01 11:54 | -21.77641 | -46.09162 | 32238 ft | 510 kts | 39° |
| 2026-05-01 11:54 | -21.74983 | -46.06641 | 32594 ft | 509 kts | 39° |
| 2026-05-01 11:54 | -21.72330 | -46.04126 | 32959 ft | 509 kts | 39° |
| 2026-05-01 11:54 | -21.69674 | -46.01611 | 33328 ft | 507 kts | 39° |
| 2026-05-01 11:55 | -21.67032 | -45.99109 | 33690 ft | 506 kts | 39° |
| 2026-05-01 11:55 | -21.64396 | -45.96614 | 34020 ft | 505 kts | 39° |
| 2026-05-01 11:55 | -21.61754 | -45.94115 | 34308 ft | 505 kts | 39° |
| 2026-05-01 11:55 | -21.59121 | -45.91626 | 34569 ft | 505 kts | 39° |
| 2026-05-01 11:56 | -21.56482 | -45.89132 | 34832 ft | 504 kts | 39° |
| 2026-05-01 11:56 | -21.53887 | -45.86683 | 35084 ft | 504 kts | 39° |
| 2026-05-01 11:56 | -21.51254 | -45.84197 | 35333 ft | 503 kts | 39° |
| 2026-05-01 11:56 | -21.48629 | -45.81720 | 35567 ft | 503 kts | 39° |
| 2026-05-01 11:57 | -21.45996 | -45.79242 | 35808 ft | 503 kts | 39° |
| 2026-05-01 11:57 | -21.44220 | -45.77573 | 35977 ft | 502 kts | 39° |
| 2026-05-01 11:57 | -21.40737 | -45.74301 | 36242 ft | 502 kts | 39° |
| 2026-05-01 11:57 | -21.38078 | -45.71803 | 36468 ft | 502 kts | 39° |
| 2026-05-01 11:58 | -21.35455 | -45.69336 | 36686 ft | 501 kts | 39° |
| 2026-05-01 11:58 | -21.32870 | -45.66906 | 36902 ft | 500 kts | 39° |
| 2026-05-01 11:58 | -21.27641 | -45.61990 | 37302 ft | 500 kts | 39° |
| 2026-05-01 11:59 | -21.25029 | -45.59537 | 37491 ft | 499 kts | 39° |
| 2026-05-01 11:59 | -21.22419 | -45.57086 | 37683 ft | 499 kts | 39° |
| 2026-05-01 11:59 | -21.19821 | -45.54648 | 37889 ft | 498 kts | 38° |
| 2026-05-01 12:00 | -21.14614 | -45.49766 | 38227 ft | 497 kts | 38° |
| 2026-05-01 12:00 | -21.12010 | -45.47326 | 38398 ft | 497 kts | 38° |
| 2026-05-01 12:00 | -21.06809 | -45.42458 | 38694 ft | 496 kts | 38° |
| 2026-05-01 12:01 | -21.04214 | -45.40030 | 38863 ft | 496 kts | 38° |
| 2026-05-01 12:01 | -21.01616 | -45.37600 | 38997 ft | 495 kts | 38° |
| 2026-05-01 12:01 | -20.99023 | -45.35176 | 39134 ft | 495 kts | 38° |
| 2026-05-01 12:01 | -20.96436 | -45.32759 | 39254 ft | 494 kts | 38° |
| 2026-05-01 12:02 | -20.93845 | -45.30340 | 39355 ft | 494 kts | 38° |
| 2026-05-01 12:02 | -20.91260 | -45.27927 | 39490 ft | 493 kts | 38° |
| 2026-05-01 12:02 | -20.88675 | -45.25515 | 39594 ft | 493 kts | 38° |
| 2026-05-01 12:02 | -20.86096 | -45.23111 | 39701 ft | 492 kts | 38° |
| 2026-05-01 12:03 | -20.83517 | -45.20711 | 39835 ft | 491 kts | 38° |
| 2026-05-01 12:03 | -20.80938 | -45.18316 | 39938 ft | 490 kts | 38° |
| 2026-05-01 12:03 | -20.78366 | -45.15928 | 40063 ft | 489 kts | 38° |
| 2026-05-01 12:03 | -20.75798 | -45.13542 | 40189 ft | 489 kts | 38° |
| 2026-05-01 12:04 | -20.73236 | -45.11161 | 40311 ft | 488 kts | 38° |
| 2026-05-01 12:04 | -20.70681 | -45.08786 | 40431 ft | 487 kts | 38° |
| 2026-05-01 12:04 | -20.68131 | -45.06417 | 40546 ft | 485 kts | 38° |
| 2026-05-01 12:04 | -20.65590 | -45.04056 | 40668 ft | 484 kts | 38° |
| 2026-05-01 12:05 | -20.63052 | -45.01700 | 40792 ft | 483 kts | 38° |
| 2026-05-01 12:05 | -20.57995 | -44.97006 | 41112 ft | 478 kts | 38° |
| 2026-05-01 12:05 | -20.55513 | -44.94705 | 41185 ft | 479 kts | 38° |
| 2026-05-01 12:06 | -20.50482 | -44.90044 | 41203 ft | 480 kts | 38° |
| 2026-05-01 12:06 | -20.45433 | -44.85371 | 41204 ft | 480 kts | 38° |
| 2026-05-01 12:07 | -20.40390 | -44.80707 | 41205 ft | 480 kts | 38° |
| 2026-05-01 12:07 | -20.35343 | -44.76042 | 41203 ft | 480 kts | 38° |
| 2026-05-01 12:08 | -20.30292 | -44.71379 | 41200 ft | 480 kts | 38° |
| 2026-05-01 12:08 | -20.25246 | -44.66725 | 41200 ft | 480 kts | 38° |
| 2026-05-01 12:09 | -20.20196 | -44.62075 | 41201 ft | 480 kts | 38° |
| 2026-05-01 12:09 | -20.15140 | -44.57433 | 41202 ft | 480 kts | 38° |
| 2026-05-01 12:10 | -20.08413 | -44.51252 | 41199 ft | 480 kts | 39° |
| 2026-05-01 12:11 | -20.00833 | -44.44289 | 41205 ft | 480 kts | 39° |
| 2026-05-01 12:11 | -19.95787 | -44.39658 | 41203 ft | 479 kts | 39° |
| 2026-05-01 12:12 | -19.90739 | -44.35030 | 41200 ft | 479 kts | 39° |
| 2026-05-01 12:12 | -19.85695 | -44.30410 | 41205 ft | 479 kts | 39° |
| 2026-05-01 12:13 | -19.80652 | -44.25794 | 41205 ft | 479 kts | 39° |
| 2026-05-01 12:13 | -19.75589 | -44.21199 | 41202 ft | 478 kts | 37° |
| 2026-05-01 12:14 | -19.70348 | -44.16870 | 41201 ft | 477 kts | 35° |
| 2026-05-01 12:14 | -19.65081 | -44.12687 | 41199 ft | 477 kts | 35° |
| 2026-05-01 12:15 | -19.59779 | -44.08467 | 41194 ft | 477 kts | 35° |
| 2026-05-01 12:15 | -19.54482 | -44.04230 | 41261 ft | 477 kts | 35° |
| 2026-05-01 12:16 | -19.49192 | -43.99994 | 41253 ft | 476 kts | 35° |
| 2026-05-01 12:16 | -19.43906 | -43.95764 | 41240 ft | 476 kts | 35° |
| 2026-05-01 12:17 | -19.38617 | -43.91536 | 41226 ft | 476 kts | 35° |
| 2026-05-01 12:17 | -19.33327 | -43.87312 | 41213 ft | 476 kts | 35° |
| 2026-05-01 12:18 | -19.28042 | -43.83095 | 41196 ft | 476 kts | 36° |
| 2026-05-01 12:18 | -19.22755 | -43.78880 | 41199 ft | 476 kts | 36° |
| 2026-05-01 12:19 | -19.17470 | -43.74669 | 41207 ft | 476 kts | 36° |
| 2026-05-01 12:19 | -19.12181 | -43.70460 | 41202 ft | 476 kts | 36° |
| 2026-05-01 12:20 | -19.06890 | -43.66258 | 41214 ft | 476 kts | 36° |
| 2026-05-01 12:20 | -19.01596 | -43.62061 | 41210 ft | 476 kts | 36° |
| 2026-05-01 12:21 | -18.96307 | -43.57865 | 41209 ft | 476 kts | 35° |
| 2026-05-01 12:21 | -18.91015 | -43.53667 | 41211 ft | 476 kts | 36° |
| 2026-05-01 12:22 | -18.85758 | -43.49500 | 41205 ft | 476 kts | 36° |
| 2026-05-01 12:22 | -18.80460 | -43.45303 | 41204 ft | 476 kts | 36° |
| 2026-05-01 12:23 | -18.75161 | -43.41110 | 41205 ft | 476 kts | 36° |
| 2026-05-01 12:23 | -18.69860 | -43.36918 | 41206 ft | 476 kts | 36° |
| 2026-05-01 12:24 | -18.64561 | -43.32731 | 41203 ft | 476 kts | 36° |
| 2026-05-01 12:24 | -18.59265 | -43.28550 | 41203 ft | 476 kts | 36° |
| 2026-05-01 12:25 | -18.51314 | -43.22278 | 41199 ft | 476 kts | 35° |
| 2026-05-01 12:26 | -18.46012 | -43.18101 | 41198 ft | 476 kts | 35° |
| 2026-05-01 12:26 | -18.37644 | -43.12596 | 41200 ft | 472 kts | 21° |
| 2026-05-01 12:27 | -18.28388 | -43.09060 | 41198 ft | 472 kts | 18° |
| 2026-05-01 12:28 | -18.19132 | -43.05521 | 41198 ft | 472 kts | 19° |
| 2026-05-01 12:29 | -18.09921 | -43.01886 | 41193 ft | 472 kts | 19° |
| 2026-05-01 12:29 | -18.00721 | -42.98253 | 41200 ft | 472 kts | 19° |
| 2026-05-01 12:30 | -17.91538 | -42.94635 | 41199 ft | 472 kts | 19° |
| 2026-05-01 12:31 | -17.85385 | -42.92214 | 41199 ft | 472 kts | 20° |
| 2026-05-01 12:31 | -17.79227 | -42.89792 | 41199 ft | 472 kts | 20° |
| 2026-05-01 12:32 | -17.73077 | -42.87375 | 41188 ft | 472 kts | 20° |
| 2026-05-01 12:32 | -17.63845 | -42.83751 | 41193 ft | 472 kts | 20° |
| 2026-05-01 12:33 | -17.57690 | -42.81341 | 41191 ft | 472 kts | 20° |
| 2026-05-01 12:33 | -17.51535 | -42.78932 | 41191 ft | 472 kts | 20° |
| 2026-05-01 12:34 | -17.45373 | -42.76525 | 41185 ft | 472 kts | 20° |
| 2026-05-01 12:34 | -17.39214 | -42.74132 | 41185 ft | 472 kts | 20° |
| 2026-05-01 12:35 | -17.33050 | -42.71739 | 41185 ft | 473 kts | 20° |
| 2026-05-01 12:35 | -17.26882 | -42.69346 | 41176 ft | 473 kts | 20° |
| 2026-05-01 12:36 | -17.20712 | -42.66953 | 41178 ft | 473 kts | 20° |
| 2026-05-01 12:36 | -17.14542 | -42.64562 | 41175 ft | 473 kts | 20° |
| 2026-05-01 12:37 | -17.08366 | -42.62170 | 41176 ft | 474 kts | 20° |
| 2026-05-01 12:37 | -17.02176 | -42.59774 | 41158 ft | 474 kts | 20° |
| 2026-05-01 12:38 | -16.96043 | -42.57403 | 41159 ft | 475 kts | 20° |
| 2026-05-01 12:38 | -16.89812 | -42.54995 | 41170 ft | 475 kts | 20° |
| 2026-05-01 12:39 | -16.83653 | -42.52616 | 41169 ft | 475 kts | 20° |
| 2026-05-01 12:39 | -16.77448 | -42.50222 | 41165 ft | 475 kts | 20° |
| 2026-05-01 12:40 | -16.71241 | -42.47828 | 41171 ft | 476 kts | 20° |
| 2026-05-01 12:40 | -16.65038 | -42.45441 | 41165 ft | 476 kts | 20° |
| 2026-05-01 12:41 | -16.58828 | -42.43049 | 41153 ft | 476 kts | 20° |
| 2026-05-01 12:41 | -16.52619 | -42.40648 | 41167 ft | 476 kts | 20° |
| 2026-05-01 12:42 | -16.46409 | -42.38245 | 41168 ft | 476 kts | 21° |
| 2026-05-01 12:42 | -16.40206 | -42.35845 | 41162 ft | 475 kts | 20° |
| 2026-05-01 12:43 | -16.34008 | -42.33449 | 41163 ft | 475 kts | 21° |
| 2026-05-01 12:43 | -16.27808 | -42.31054 | 41168 ft | 475 kts | 20° |
| 2026-05-01 12:44 | -16.21605 | -42.28660 | 41166 ft | 475 kts | 21° |
| 2026-05-01 12:45 | -16.09370 | -42.23559 | 41166 ft | 474 kts | 29° |
| 2026-05-01 12:45 | -16.03701 | -42.20064 | 41166 ft | 474 kts | 32° |
| 2026-05-01 12:46 | -15.98138 | -42.16463 | 41171 ft | 474 kts | 32° |
| 2026-05-01 12:46 | -15.92475 | -42.12865 | 41162 ft | 474 kts | 32° |
| 2026-05-01 12:47 | -15.86828 | -42.09326 | 41154 ft | 474 kts | 32° |
| 2026-05-01 12:47 | -15.81217 | -42.05822 | 41153 ft | 474 kts | 32° |
| 2026-05-01 12:48 | -15.75562 | -42.02291 | 41163 ft | 474 kts | 32° |
| 2026-05-01 12:48 | -15.69917 | -41.98768 | 41162 ft | 474 kts | 32° |
| 2026-05-01 12:49 | -15.64270 | -41.95245 | 41169 ft | 474 kts | 32° |
| 2026-05-01 12:49 | -15.58619 | -41.91721 | 41151 ft | 474 kts | 32° |
| 2026-05-01 12:50 | -15.52967 | -41.88200 | 41165 ft | 474 kts | 32° |
| 2026-05-01 12:50 | -15.47320 | -41.84684 | 41167 ft | 474 kts | 32° |
| 2026-05-01 12:51 | -15.41669 | -41.81167 | 41161 ft | 474 kts | 32° |
| 2026-05-01 12:52 | -15.33180 | -41.75898 | 41160 ft | 474 kts | 32° |
| 2026-05-01 12:52 | -15.24696 | -41.70632 | 41143 ft | 474 kts | 32° |
| 2026-05-01 12:53 | -15.16245 | -41.65388 | 41157 ft | 474 kts | 32° |
| 2026-05-01 12:54 | -15.10582 | -41.61877 | 41156 ft | 474 kts | 32° |
| 2026-05-01 12:54 | -15.02088 | -41.56614 | 41138 ft | 474 kts | 32° |
| 2026-05-01 12:55 | -14.93603 | -41.51361 | 41135 ft | 474 kts | 32° |
| 2026-05-01 12:56 | -14.87998 | -41.47895 | 41145 ft | 474 kts | 32° |
| 2026-05-01 12:56 | -14.82286 | -41.44364 | 41142 ft | 474 kts | 32° |
| 2026-05-01 12:57 | -14.76628 | -41.40869 | 41133 ft | 474 kts | 32° |
| 2026-05-01 12:57 | -14.68138 | -41.35629 | 41133 ft | 474 kts | 32° |
| 2026-05-01 12:58 | -14.62474 | -41.32142 | 41142 ft | 474 kts | 32° |
| 2026-05-01 12:59 | -14.53968 | -41.26904 | 41138 ft | 474 kts | 32° |
| 2026-05-01 12:59 | -14.45476 | -41.21675 | 41135 ft | 474 kts | 32° |
| 2026-05-01 13:00 | -14.37930 | -41.17032 | 41130 ft | 474 kts | 32° |
| 2026-05-01 13:01 | -14.28503 | -41.11238 | 41131 ft | 474 kts | 32° |
| 2026-05-01 13:02 | -14.20920 | -41.06581 | 41130 ft | 474 kts | 32° |
| 2026-05-01 13:07 | -13.58550 | -40.68487 | 41125 ft | 475 kts | 31° |
| 2026-05-01 13:08 | -13.52853 | -40.65037 | 41119 ft | 475 kts | 32° |
| 2026-05-01 13:08 | -13.47156 | -40.61588 | 41116 ft | 475 kts | 31° |
| 2026-05-01 13:09 | -13.41455 | -40.58138 | 41121 ft | 476 kts | 32° |
| 2026-05-01 13:09 | -13.35754 | -40.54690 | 41118 ft | 475 kts | 31° |
| 2026-05-01 13:10 | -13.30055 | -40.51246 | 41114 ft | 475 kts | 31° |
| 2026-05-01 13:10 | -13.24353 | -40.47801 | 41115 ft | 476 kts | 31° |
| 2026-05-01 13:11 | -13.18641 | -40.44353 | 41115 ft | 477 kts | 32° |
| 2026-05-01 13:11 | -13.12964 | -40.40927 | 41111 ft | 477 kts | 31° |
| 2026-05-01 13:12 | -13.07250 | -40.37481 | 41114 ft | 476 kts | 31° |
| 2026-05-01 13:12 | -13.01537 | -40.34039 | 41108 ft | 476 kts | 31° |
| 2026-05-01 13:13 | -12.95818 | -40.30599 | 41107 ft | 476 kts | 31° |
| 2026-05-01 13:13 | -12.90111 | -40.27165 | 41110 ft | 476 kts | 31° |
| 2026-05-01 13:14 | -12.84397 | -40.23726 | 41106 ft | 476 kts | 32° |
| 2026-05-01 13:14 | -12.78688 | -40.20293 | 41104 ft | 476 kts | 32° |
| 2026-05-01 13:15 | -12.72975 | -40.16858 | 41100 ft | 476 kts | 31° |
| 2026-05-01 13:15 | -12.67259 | -40.13423 | 41099 ft | 477 kts | 31° |
| 2026-05-01 13:16 | -12.61539 | -40.09988 | 41095 ft | 477 kts | 31° |
| 2026-05-01 13:16 | -12.55815 | -40.06552 | 41099 ft | 477 kts | 31° |
| 2026-05-01 13:17 | -12.44366 | -39.99685 | 41097 ft | 477 kts | 32° |
| 2026-05-01 13:18 | -12.35772 | -39.94536 | 41098 ft | 477 kts | 32° |
| 2026-05-01 13:18 | -12.30035 | -39.91101 | 41100 ft | 478 kts | 31° |
| 2026-05-01 13:19 | -12.24295 | -39.87671 | 41095 ft | 478 kts | 31° |
| 2026-05-01 13:20 | -12.15727 | -39.82549 | 41094 ft | 478 kts | 31° |
| 2026-05-01 13:20 | -12.09987 | -39.79118 | 41095 ft | 478 kts | 31° |
| 2026-05-01 13:21 | -12.01368 | -39.73969 | 41088 ft | 478 kts | 31° |
| 2026-05-01 13:21 | -11.95625 | -39.70540 | 41088 ft | 478 kts | 31° |
| 2026-05-01 13:22 | -11.89876 | -39.67110 | 41085 ft | 478 kts | 31° |
| 2026-05-01 13:22 | -11.84127 | -39.63686 | 41084 ft | 478 kts | 31° |
| 2026-05-01 13:23 | -11.78378 | -39.60264 | 41083 ft | 478 kts | 31° |
| 2026-05-01 13:23 | -11.72673 | -39.56861 | 41085 ft | 478 kts | 31° |
| 2026-05-01 13:24 | -11.66930 | -39.53434 | 41081 ft | 478 kts | 31° |
| 2026-05-01 13:25 | -11.58312 | -39.48294 | 41080 ft | 478 kts | 31° |
| 2026-05-01 13:25 | -11.52567 | -39.44870 | 41079 ft | 478 kts | 31° |
| 2026-05-01 13:26 | -11.46823 | -39.41449 | 41077 ft | 478 kts | 31° |
| 2026-05-01 13:26 | -11.41078 | -39.38028 | 41075 ft | 478 kts | 31° |
| 2026-05-01 13:27 | -11.35332 | -39.34608 | 41077 ft | 479 kts | 31° |
| 2026-05-01 13:27 | -11.26699 | -39.29474 | 41072 ft | 479 kts | 31° |
| 2026-05-01 13:28 | -11.18059 | -39.24339 | 41073 ft | 479 kts | 31° |
| 2026-05-01 13:29 | -11.06554 | -39.17509 | 41070 ft | 479 kts | 31° |
| 2026-05-01 13:31 | -10.89266 | -39.07262 | 41069 ft | 479 kts | 31° |
| 2026-05-01 13:32 | -10.74861 | -38.98727 | 41069 ft | 480 kts | 30° |
| 2026-05-01 13:33 | -10.60473 | -38.90213 | 41070 ft | 480 kts | 30° |
| 2026-05-01 13:34 | -10.48920 | -38.83383 | 41071 ft | 481 kts | 30° |
| 2026-05-01 13:35 | -10.40233 | -38.78252 | 41071 ft | 482 kts | 30° |
| 2026-05-01 13:36 | -10.31545 | -38.73127 | 41066 ft | 482 kts | 30° |
| 2026-05-01 13:36 | -10.22845 | -38.67999 | 41068 ft | 482 kts | 30° |
| 2026-05-01 13:37 | -10.17042 | -38.64577 | 41067 ft | 483 kts | 30° |
| 2026-05-01 13:37 | -10.11232 | -38.61153 | 41069 ft | 483 kts | 30° |
| 2026-05-01 13:38 | -10.02510 | -38.56015 | 41063 ft | 483 kts | 30° |
| 2026-05-01 13:39 | -9.96700 | -38.52595 | 41061 ft | 484 kts | 30° |
| 2026-05-01 13:39 | -9.90885 | -38.49172 | 41060 ft | 484 kts | 30° |
| 2026-05-01 13:40 | -9.85097 | -38.45768 | 41059 ft | 484 kts | 30° |
| 2026-05-01 13:40 | -9.79278 | -38.42346 | 41063 ft | 484 kts | 30° |
| 2026-05-01 13:41 | -9.73416 | -38.38909 | 41054 ft | 484 kts | 30° |
| 2026-05-01 13:41 | -9.67624 | -38.35535 | 41057 ft | 484 kts | 30° |
| 2026-05-01 13:42 | -9.61788 | -38.32139 | 41063 ft | 483 kts | 30° |
| 2026-05-01 13:42 | -9.55954 | -38.28742 | 41068 ft | 483 kts | 30° |
| 2026-05-01 13:43 | -9.50128 | -38.25351 | 41074 ft | 483 kts | 30° |
| 2026-05-01 13:43 | -9.44294 | -38.21955 | 41076 ft | 483 kts | 29° |
| 2026-05-01 13:44 | -9.38469 | -38.18568 | 41082 ft | 483 kts | 29° |
| 2026-05-01 13:44 | -9.32661 | -38.15191 | 41071 ft | 482 kts | 29° |
| 2026-05-01 13:45 | -9.26847 | -38.11812 | 41068 ft | 482 kts | 29° |
| 2026-05-01 13:45 | -9.21023 | -38.08428 | 41050 ft | 483 kts | 29° |
| 2026-05-01 13:46 | -9.15202 | -38.05046 | 41048 ft | 482 kts | 29° |
| 2026-05-01 13:46 | -9.09388 | -38.01661 | 41041 ft | 482 kts | 29° |
| 2026-05-01 13:47 | -9.03587 | -37.98274 | 41042 ft | 481 kts | 29° |
| 2026-05-01 13:47 | -8.97787 | -37.94888 | 41042 ft | 481 kts | 29° |
| 2026-05-01 13:48 | -8.91987 | -37.91503 | 41037 ft | 481 kts | 29° |
| 2026-05-01 13:48 | -8.86191 | -37.88123 | 41044 ft | 481 kts | 29° |
| 2026-05-01 13:49 | -8.80397 | -37.84744 | 41041 ft | 481 kts | 29° |
| 2026-05-01 13:49 | -8.74646 | -37.81392 | 41041 ft | 481 kts | 29° |
| 2026-05-01 13:50 | -8.68842 | -37.78011 | 41042 ft | 481 kts | 29° |
| 2026-05-01 13:50 | -8.63033 | -37.74627 | 41038 ft | 482 kts | 28° |
| 2026-05-01 13:51 | -8.58164 | -37.71793 | 41037 ft | 482 kts | 29° |
| 2026-05-01 13:51 | -8.52398 | -37.68437 | 41040 ft | 481 kts | 29° |
| 2026-05-01 13:52 | -8.46600 | -37.65064 | 41039 ft | 481 kts | 29° |
| 2026-05-01 13:52 | -8.40805 | -37.61694 | 41035 ft | 481 kts | 29° |
| 2026-05-01 13:53 | -8.35010 | -37.58329 | 41037 ft | 481 kts | 29° |
| 2026-05-01 13:53 | -8.26316 | -37.53278 | 41036 ft | 481 kts | 29° |
| 2026-05-01 13:54 | -8.20520 | -37.49911 | 41037 ft | 480 kts | 29° |
| 2026-05-01 13:54 | -8.14728 | -37.46547 | 41037 ft | 480 kts | 29° |
| 2026-05-01 13:55 | -8.08933 | -37.43183 | 41038 ft | 481 kts | 28° |
| 2026-05-01 13:55 | -8.03125 | -37.39814 | 41036 ft | 481 kts | 28° |
| 2026-05-01 13:56 | -7.97319 | -37.36446 | 41034 ft | 482 kts | 28° |
| 2026-05-01 13:56 | -7.91545 | -37.33098 | 41035 ft | 482 kts | 28° |
| 2026-05-01 13:57 | -7.85724 | -37.29722 | 41033 ft | 482 kts | 28° |
| 2026-05-01 13:57 | -7.79906 | -37.26350 | 41033 ft | 483 kts | 28° |
| 2026-05-01 13:58 | -7.74074 | -37.22971 | 41036 ft | 484 kts | 28° |
| 2026-05-01 13:58 | -7.68236 | -37.19589 | 41033 ft | 484 kts | 28° |
| 2026-05-01 13:59 | -7.62400 | -37.16210 | 41035 ft | 484 kts | 28° |
| 2026-05-01 13:59 | -7.56574 | -37.12837 | 41029 ft | 484 kts | 28° |
| 2026-05-01 14:00 | -7.50731 | -37.09456 | 41031 ft | 484 kts | 28° |
| 2026-05-01 14:00 | -7.44883 | -37.06073 | 41034 ft | 485 kts | 28° |
| 2026-05-01 14:01 | -7.39030 | -37.02688 | 41028 ft | 485 kts | 28° |
| 2026-05-01 14:01 | -7.33174 | -36.99305 | 41027 ft | 485 kts | 28° |
| 2026-05-01 14:02 | -7.27320 | -36.95926 | 41021 ft | 485 kts | 28° |
| 2026-05-01 14:02 | -7.21473 | -36.92551 | 41023 ft | 485 kts | 28° |
| 2026-05-01 14:03 | -7.15617 | -36.89172 | 41019 ft | 485 kts | 28° |
| 2026-05-01 14:03 | -7.09764 | -36.85794 | 41020 ft | 485 kts | 28° |
| 2026-05-01 14:04 | -7.03912 | -36.82413 | 41020 ft | 485 kts | 28° |
| 2026-05-01 14:04 | -6.98059 | -36.79030 | 41018 ft | 485 kts | 27° |
| 2026-05-01 14:05 | -6.92205 | -36.75648 | 41017 ft | 485 kts | 28° |
| 2026-05-01 14:05 | -6.86399 | -36.72295 | 41022 ft | 484 kts | 27° |
| 2026-05-01 14:06 | -6.80562 | -36.68925 | 41018 ft | 484 kts | 27° |
| 2026-05-01 14:06 | -6.74724 | -36.65556 | 41016 ft | 483 kts | 27° |
| 2026-05-01 14:07 | -6.68889 | -36.62190 | 41019 ft | 483 kts | 27° |
| 2026-05-01 14:08 | -6.60111 | -36.57211 | 41021 ft | 483 kts | 27° |
| 2026-05-01 14:08 | -6.54272 | -36.53866 | 41027 ft | 483 kts | 27° |
| 2026-05-01 14:09 | -6.48427 | -36.50504 | 41022 ft | 484 kts | 27° |
| 2026-05-01 14:09 | -6.42589 | -36.47147 | 41021 ft | 483 kts | 27° |
| 2026-05-01 14:10 | -6.36750 | -36.43792 | 41025 ft | 483 kts | 27° |
| 2026-05-01 14:10 | -6.30914 | -36.40434 | 41024 ft | 483 kts | 27° |
| 2026-05-01 14:11 | -6.25079 | -36.37068 | 41022 ft | 484 kts | 27° |
| 2026-05-01 14:11 | -6.16496 | -36.31723 | 41027 ft | 486 kts | 37° |
| 2026-05-01 14:12 | -6.11442 | -36.27194 | 41021 ft | 487 kts | 42° |
| 2026-05-01 14:12 | -6.06539 | -36.22495 | 41020 ft | 487 kts | 42° |
| 2026-05-01 14:13 | -6.02430 | -36.18625 | 41019 ft | 487 kts | 41° |
| 2026-05-01 14:13 | -5.96636 | -36.13257 | 41016 ft | 487 kts | 41° |
| 2026-05-01 14:14 | -5.91645 | -36.08657 | 41019 ft | 487 kts | 41° |
| 2026-05-01 14:14 | -5.86662 | -36.04062 | 41009 ft | 487 kts | 41° |
| 2026-05-01 14:15 | -5.81668 | -35.99457 | 41009 ft | 487 kts | 41° |
| 2026-05-01 14:15 | -5.76679 | -35.94855 | 41007 ft | 487 kts | 41° |
| 2026-05-01 14:16 | -5.71692 | -35.90257 | 41009 ft | 487 kts | 41° |
| 2026-05-01 14:16 | -5.66686 | -35.85681 | 41004 ft | 487 kts | 41° |
| 2026-05-01 14:17 | -5.61653 | -35.81128 | 40999 ft | 487 kts | 41° |
| 2026-05-01 14:17 | -5.56622 | -35.76580 | 40999 ft | 486 kts | 41° |
| 2026-05-01 14:18 | -5.51637 | -35.72070 | 40996 ft | 487 kts | 41° |
| 2026-05-01 14:18 | -5.47662 | -35.68473 | 40997 ft | 487 kts | 41° |
| 2026-05-01 14:19 | -5.41804 | -35.63173 | 40985 ft | 487 kts | 41° |
| 2026-05-01 14:19 | -5.36824 | -35.58668 | 40985 ft | 487 kts | 41° |
| 2026-05-01 14:20 | -5.29268 | -35.51836 | 40985 ft | 487 kts | 41° |
| 2026-05-01 14:21 | -5.24230 | -35.47282 | 40987 ft | 488 kts | 42° |
| 2026-05-01 14:21 | -5.19184 | -35.42722 | 40981 ft | 489 kts | 42° |
| 2026-05-01 14:22 | -5.11602 | -35.35872 | 40982 ft | 489 kts | 42° |
| 2026-05-01 14:22 | -5.06561 | -35.31319 | 40980 ft | 489 kts | 41° |
| 2026-05-01 14:23 | -5.01531 | -35.26780 | 40977 ft | 489 kts | 41° |
| 2026-05-01 14:23 | -4.96468 | -35.22211 | 40983 ft | 490 kts | 42° |
| 2026-05-01 14:24 | -4.91389 | -35.17626 | 40975 ft | 491 kts | 42° |
| 2026-05-01 14:24 | -4.86308 | -35.13041 | 40972 ft | 492 kts | 42° |
| 2026-05-01 14:25 | -4.81223 | -35.08452 | 40969 ft | 492 kts | 42° |
| 2026-05-01 14:25 | -4.76138 | -35.03865 | 40969 ft | 492 kts | 42° |
| 2026-05-01 14:26 | -4.68503 | -34.96980 | 40979 ft | 492 kts | 42° |
| 2026-05-01 14:27 | -4.63405 | -34.92384 | 40974 ft | 493 kts | 42° |
| 2026-05-01 14:27 | -4.58300 | -34.87782 | 40971 ft | 494 kts | 42° |
| 2026-05-01 14:28 | -4.50636 | -34.80875 | 40968 ft | 494 kts | 42° |
| 2026-05-01 14:28 | -4.45523 | -34.76268 | 40968 ft | 494 kts | 42° |
| 2026-05-01 14:29 | -4.40402 | -34.71659 | 40972 ft | 494 kts | 42° |
| 2026-05-01 14:30 | -4.30193 | -34.62467 | 40971 ft | 493 kts | 42° |
| 2026-05-01 14:31 | -4.22572 | -34.55606 | 40972 ft | 493 kts | 42° |
| 2026-05-01 14:31 | -4.17475 | -34.51019 | 40970 ft | 493 kts | 42° |
| 2026-05-01 14:32 | -4.12378 | -34.46432 | 40965 ft | 492 kts | 42° |
| 2026-05-01 14:32 | -4.07278 | -34.41844 | 40970 ft | 492 kts | 42° |
| 2026-05-01 14:33 | -4.02186 | -34.37263 | 40959 ft | 492 kts | 42° |
| 2026-05-01 14:33 | -3.97092 | -34.32682 | 40959 ft | 492 kts | 42° |
| 2026-05-01 14:34 | -3.91996 | -34.28099 | 40960 ft | 492 kts | 42° |
| 2026-05-01 14:34 | -3.86897 | -34.23515 | 40959 ft | 492 kts | 42° |
| 2026-05-01 14:35 | -3.81799 | -34.18934 | 40965 ft | 492 kts | 42° |
| 2026-05-01 14:35 | -3.76706 | -34.14359 | 40959 ft | 492 kts | 43° |
| 2026-05-01 14:36 | -3.71607 | -34.09778 | 40957 ft | 493 kts | 42° |
| 2026-05-01 14:36 | -3.66297 | -34.05449 | 40957 ft | 493 kts | 32° |
| 2026-05-01 14:37 | -3.60315 | -34.02102 | 40959 ft | 493 kts | 26° |
| 2026-05-01 14:37 | -3.54233 | -33.99018 | 40953 ft | 494 kts | 27° |
| 2026-05-01 14:38 | -3.48137 | -33.95848 | 40955 ft | 494 kts | 27° |
| 2026-05-01 14:38 | -3.42069 | -33.92623 | 40947 ft | 494 kts | 28° |
| 2026-05-01 14:39 | -3.36003 | -33.89382 | 40950 ft | 494 kts | 28° |
| 2026-05-01 14:39 | -3.29940 | -33.86145 | 40958 ft | 494 kts | 28° |
| 2026-05-01 14:40 | -3.23869 | -33.82908 | 40955 ft | 494 kts | 28° |
| 2026-05-01 14:40 | -3.18828 | -33.80220 | 40954 ft | 494 kts | 28° |
| 2026-05-01 14:41 | -3.12758 | -33.76985 | 40945 ft | 494 kts | 28° |
| 2026-05-01 14:41 | -3.06691 | -33.73752 | 40953 ft | 494 kts | 28° |
| 2026-05-01 14:42 | -3.00624 | -33.70519 | 40955 ft | 494 kts | 28° |
| 2026-05-01 14:42 | -2.94563 | -33.67289 | 40956 ft | 493 kts | 28° |
| 2026-05-01 14:43 | -2.88508 | -33.64065 | 40944 ft | 492 kts | 28° |
| 2026-05-01 14:43 | -2.82465 | -33.60846 | 40950 ft | 493 kts | 28° |
| 2026-05-01 14:44 | -2.76412 | -33.57622 | 40945 ft | 493 kts | 28° |
| 2026-05-01 14:44 | -2.67375 | -33.52810 | 40946 ft | 493 kts | 28° |
| 2026-05-01 14:45 | -2.58295 | -33.47966 | 40946 ft | 493 kts | 28° |
| 2026-05-01 14:46 | -2.52238 | -33.44729 | 40941 ft | 493 kts | 28° |
| 2026-05-01 14:46 | -2.43168 | -33.39883 | 40943 ft | 492 kts | 28° |
| 2026-05-01 14:47 | -2.37129 | -33.36656 | 40946 ft | 492 kts | 28° |
| 2026-05-01 14:48 | -2.28079 | -33.31822 | 40940 ft | 492 kts | 28° |
| 2026-05-01 14:48 | -2.19029 | -33.26989 | 40945 ft | 491 kts | 28° |
| 2026-05-01 14:49 | -2.06965 | -33.20547 | 40932 ft | 491 kts | 28° |
| 2026-05-01 14:50 | -1.94906 | -33.14109 | 40939 ft | 491 kts | 28° |
| 2026-05-01 14:51 | -1.85871 | -33.09286 | 40935 ft | 490 kts | 27° |
| 2026-05-01 14:52 | -1.76839 | -33.04466 | 40937 ft | 490 kts | 27° |
| 2026-05-01 14:53 | -1.67810 | -32.99647 | 40935 ft | 490 kts | 27° |
| 2026-05-01 14:53 | -1.61789 | -32.96434 | 40938 ft | 490 kts | 27° |
| 2026-05-01 14:54 | -1.55769 | -32.93222 | 40937 ft | 490 kts | 27° |
| 2026-05-01 14:54 | -1.49747 | -32.90009 | 40937 ft | 490 kts | 27° |
| 2026-05-01 14:55 | -1.43729 | -32.86798 | 40930 ft | 490 kts | 27° |
| 2026-05-01 14:55 | -1.37712 | -32.83588 | 40932 ft | 490 kts | 27° |
| 2026-05-01 14:56 | -1.31693 | -32.80377 | 40935 ft | 490 kts | 27° |
| 2026-05-01 14:56 | -1.26003 | -32.76723 | 40930 ft | 490 kts | 38° |
| 2026-05-01 14:57 | -1.20937 | -32.72407 | 40925 ft | 491 kts | 41° |
| 2026-05-01 14:57 | -1.13251 | -32.65643 | 40926 ft | 491 kts | 40° |
| 2026-05-01 14:58 | -1.08076 | -32.61198 | 40932 ft | 491 kts | 40° |
| 2026-05-01 14:58 | -1.02883 | -32.56767 | 40928 ft | 491 kts | 40° |
| 2026-05-01 14:59 | -0.97685 | -32.52333 | 40923 ft | 491 kts | 40° |
| 2026-05-01 14:59 | -0.92497 | -32.47905 | 40927 ft | 491 kts | 40° |
| 2026-05-01 15:00 | -0.84700 | -32.41248 | 40923 ft | 491 kts | 40° |
| 2026-05-01 15:01 | -0.79504 | -32.36812 | 40928 ft | 491 kts | 40° |
| 2026-05-01 15:01 | -0.74307 | -32.32375 | 40924 ft | 491 kts | 39° |
| 2026-05-01 15:02 | -0.69104 | -32.27934 | 40920 ft | 492 kts | 39° |
| 2026-05-01 15:02 | -0.63906 | -32.23496 | 40929 ft | 492 kts | 39° |
| 2026-05-01 15:03 | -0.58710 | -32.19062 | 40921 ft | 491 kts | 39° |
| 2026-05-01 15:03 | -0.53516 | -32.14628 | 40926 ft | 491 kts | 39° |
| 2026-05-01 15:04 | -0.48326 | -32.10198 | 40924 ft | 491 kts | 39° |
| 2026-05-01 15:04 | -0.43131 | -32.05764 | 40929 ft | 491 kts | 39° |
| 2026-05-01 15:05 | -0.37942 | -32.01334 | 40924 ft | 491 kts | 39° |
| 2026-05-01 15:05 | -0.32751 | -31.96904 | 40922 ft | 491 kts | 39° |
| 2026-05-01 15:06 | -0.27560 | -31.92473 | 40926 ft | 491 kts | 39° |
| 2026-05-01 15:06 | -0.22373 | -31.88046 | 40922 ft | 491 kts | 39° |
| 2026-05-01 15:07 | -0.17183 | -31.83617 | 40924 ft | 491 kts | 39° |
| 2026-05-01 15:07 | -0.12025 | -31.79214 | 40923 ft | 491 kts | 39° |
| 2026-05-01 15:08 | -0.06839 | -31.74788 | 40924 ft | 490 kts | 39° |
| 2026-05-01 15:08 | -0.01653 | -31.70361 | 40922 ft | 490 kts | 39° |
| 2026-05-01 15:09 | 0.03523 | -31.65944 | 40918 ft | 489 kts | 40° |
| 2026-05-01 15:09 | 0.08691 | -31.61534 | 40922 ft | 488 kts | 40° |
| 2026-05-01 15:10 | 0.13853 | -31.57127 | 40919 ft | 488 kts | 40° |
| 2026-05-01 15:10 | 0.21592 | -31.50522 | 40921 ft | 487 kts | 39° |
| 2026-05-01 15:11 | 0.29323 | -31.43924 | 40922 ft | 488 kts | 39° |
| 2026-05-01 15:12 | 0.34482 | -31.39521 | 40917 ft | 487 kts | 40° |
| 2026-05-01 15:12 | 0.42214 | -31.32921 | 40911 ft | 487 kts | 40° |
| 2026-05-01 15:14 | 0.55094 | -31.21927 | 40921 ft | 487 kts | 40° |
| 2026-05-01 15:14 | 0.62778 | -31.15368 | 40914 ft | 487 kts | 40° |
| 2026-05-01 15:15 | 0.73080 | -31.06574 | 40921 ft | 487 kts | 40° |
| 2026-05-01 15:16 | 0.83380 | -30.97781 | 40918 ft | 487 kts | 40° |
| 2026-05-01 15:18 | 0.96244 | -30.86797 | 40907 ft | 486 kts | 39° |
| 2026-05-01 15:19 | 1.06541 | -30.78006 | 40916 ft | 487 kts | 39° |
| 2026-05-01 15:19 | 1.14238 | -30.71434 | 40917 ft | 487 kts | 39° |
| 2026-05-01 15:20 | 1.21970 | -30.64830 | 40915 ft | 487 kts | 39° |
| 2026-05-01 15:21 | 1.27119 | -30.60432 | 40905 ft | 487 kts | 39° |
| 2026-05-01 15:21 | 1.32271 | -30.56032 | 40912 ft | 487 kts | 39° |
| 2026-05-01 15:22 | 1.39995 | -30.49434 | 40907 ft | 487 kts | 39° |
| 2026-05-01 15:22 | 1.45147 | -30.45034 | 40916 ft | 487 kts | 39° |
| 2026-05-01 15:23 | 1.50302 | -30.40630 | 40909 ft | 487 kts | 39° |
| 2026-05-01 15:23 | 1.55453 | -30.36229 | 40919 ft | 487 kts | 39° |
| 2026-05-01 15:24 | 1.60607 | -30.31826 | 40905 ft | 487 kts | 39° |
| 2026-05-01 15:24 | 1.65755 | -30.27428 | 40914 ft | 487 kts | 39° |
| 2026-05-01 15:25 | 1.70904 | -30.23028 | 40911 ft | 487 kts | 39° |
| 2026-05-01 15:25 | 1.76046 | -30.18633 | 40918 ft | 487 kts | 39° |
| 2026-05-01 15:26 | 1.81193 | -30.14235 | 40913 ft | 487 kts | 39° |
| 2026-05-01 15:26 | 1.86335 | -30.09841 | 40914 ft | 486 kts | 39° |
| 2026-05-01 15:27 | 1.90608 | -30.06187 | 40908 ft | 486 kts | 39° |
| 2026-05-01 15:28 | 1.98318 | -29.99596 | 40912 ft | 486 kts | 39° |
| 2026-05-01 15:28 | 2.03457 | -29.95203 | 40915 ft | 486 kts | 39° |
| 2026-05-01 15:29 | 2.11166 | -29.88606 | 40907 ft | 486 kts | 40° |
| 2026-05-01 15:30 | 2.20602 | -29.78904 | 40910 ft | 488 kts | 46° |
| 2026-05-01 15:31 | 2.34431 | -29.64011 | 40914 ft | 488 kts | 46° |
| 2026-05-01 15:32 | 2.43701 | -29.54096 | 40914 ft | 487 kts | 46° |
| 2026-05-01 15:34 | 2.57597 | -29.39222 | 40921 ft | 488 kts | 46° |